sensor_id;sensor_type;location;lat;lon;timestamp;P1;durP1;ratioP1;P2;durP2;ratioP2
45728;SDS011;31439;53.512;10.206;2023-04-24T00:00:34;5.95;;;4.72;;
45728;SDS011;31439;53.512;10.206;2023-04-24T00:03:00;5.57;;;4.63;;
45728;SDS011;31439;53.512;10.206;2023-04-24T00:05:28;6.65;;;4.93;;
45728;SDS011;31439;53.512;10.206;2023-04-24T00:07:53;7.15;;;4.53;;
45728;SDS011;31439;53.512;10.206;2023-04-24T00:10:20;6.68;;;4.82;;
45728;SDS011;31439;53.512;10.206;2023-04-24T00:12:45;5.63;;;4.93;;
45728;SDS011;31439;53.512;10.206;2023-04-24T00:15:11;5.72;;;4.57;;
45728;SDS011;31439;53.512;10.206;2023-04-24T00:17:37;5.28;;;4.63;;
45728;SDS011;31439;53.512;10.206;2023-04-24T00:20:03;5.72;;;4.60;;
45728;SDS011;31439;53.512;10.206;2023-04-24T00:22:31;5.85;;;5.00;;
45728;SDS011;31439;53.512;10.206;2023-04-24T00:24:57;6.82;;;4.70;;
45728;SDS011;31439;53.512;10.206;2023-04-24T00:27:23;7.95;;;4.90;;
45728;SDS011;31439;53.512;10.206;2023-04-24T00:29:49;6.03;;;4.75;;
45728;SDS011;31439;53.512;10.206;2023-04-24T00:32:14;5.57;;;4.38;;
45728;SDS011;31439;53.512;10.206;2023-04-24T00:34:40;6.65;;;4.85;;
45728;SDS011;31439;53.512;10.206;2023-04-24T00:37:06;6.38;;;5.43;;
45728;SDS011;31439;53.512;10.206;2023-04-24T00:39:32;8.25;;;5.32;;
45728;SDS011;31439;53.512;10.206;2023-04-24T00:41:58;7.25;;;5.20;;
45728;SDS011;31439;53.512;10.206;2023-04-24T00:44:24;6.10;;;5.47;;
45728;SDS011;31439;53.512;10.206;2023-04-24T00:46:50;7.50;;;5.45;;
45728;SDS011;31439;53.512;10.206;2023-04-24T00:49:19;7.65;;;4.95;;
45728;SDS011;31439;53.512;10.206;2023-04-24T00:51:45;6.18;;;5.25;;
45728;SDS011;31439;53.512;10.206;2023-04-24T00:54:12;7.03;;;5.10;;
45728;SDS011;31439;53.512;10.206;2023-04-24T00:56:38;6.20;;;5.00;;
45728;SDS011;31439;53.512;10.206;2023-04-24T00:59:06;6.00;;;4.88;;
45728;SDS011;31439;53.512;10.206;2023-04-24T01:01:31;6.53;;;4.68;;
45728;SDS011;31439;53.512;10.206;2023-04-24T01:03:57;6.85;;;5.22;;
45728;SDS011;31439;53.512;10.206;2023-04-24T01:06:26;5.10;;;4.60;;
45728;SDS011;31439;53.512;10.206;2023-04-24T01:08:54;7.03;;;5.03;;
45728;SDS011;31439;53.512;10.206;2023-04-24T01:11:21;7.47;;;4.85;;
45728;SDS011;31439;53.512;10.206;2023-04-24T01:13:47;4.90;;;4.40;;
45728;SDS011;31439;53.512;10.206;2023-04-24T01:16:13;5.82;;;4.72;;
45728;SDS011;31439;53.512;10.206;2023-04-24T01:18:40;5.10;;;4.50;;
45728;SDS011;31439;53.512;10.206;2023-04-24T01:21:06;7.85;;;4.28;;
45728;SDS011;31439;53.512;10.206;2023-04-24T01:23:33;5.68;;;4.47;;
45728;SDS011;31439;53.512;10.206;2023-04-24T01:25:59;7.43;;;4.40;;
45728;SDS011;31439;53.512;10.206;2023-04-24T01:28:25;6.18;;;4.30;;
45728;SDS011;31439;53.512;10.206;2023-04-24T01:30:51;5.10;;;3.80;;
45728;SDS011;31439;53.512;10.206;2023-04-24T01:33:18;8.23;;;4.68;;
45728;SDS011;31439;53.512;10.206;2023-04-24T01:35:46;4.93;;;3.97;;
45728;SDS011;31439;53.512;10.206;2023-04-24T01:38:12;5.22;;;4.22;;
45728;SDS011;31439;53.512;10.206;2023-04-24T01:40:37;7.15;;;4.45;;
45728;SDS011;31439;53.512;10.206;2023-04-24T01:43:03;5.43;;;4.25;;
45728;SDS011;31439;53.512;10.206;2023-04-24T01:45:29;4.88;;;3.65;;
45728;SDS011;31439;53.512;10.206;2023-04-24T01:47:55;5.97;;;3.60;;
45728;SDS011;31439;53.512;10.206;2023-04-24T01:50:21;4.53;;;3.60;;
45728;SDS011;31439;53.512;10.206;2023-04-24T01:52:46;5.15;;;3.40;;
45728;SDS011;31439;53.512;10.206;2023-04-24T01:55:12;4.82;;;3.20;;
45728;SDS011;31439;53.512;10.206;2023-04-24T01:57:38;5.35;;;3.50;;
45728;SDS011;31439;53.512;10.206;2023-04-24T02:00:05;4.53;;;3.30;;
45728;SDS011;31439;53.512;10.206;2023-04-24T02:02:32;4.30;;;3.30;;
45728;SDS011;31439;53.512;10.206;2023-04-24T02:04:57;5.65;;;3.40;;
45728;SDS011;31439;53.512;10.206;2023-04-24T02:07:23;5.57;;;3.30;;
45728;SDS011;31439;53.512;10.206;2023-04-24T02:09:49;5.13;;;3.70;;
45728;SDS011;31439;53.512;10.206;2023-04-24T02:12:15;5.45;;;3.70;;
45728;SDS011;31439;53.512;10.206;2023-04-24T02:14:42;4.97;;;3.40;;
45728;SDS011;31439;53.512;10.206;2023-04-24T02:17:08;3.75;;;3.35;;
45728;SDS011;31439;53.512;10.206;2023-04-24T02:19:34;3.97;;;3.20;;
45728;SDS011;31439;53.512;10.206;2023-04-24T02:21:59;4.05;;;3.10;;
45728;SDS011;31439;53.512;10.206;2023-04-24T02:24:25;4.85;;;3.50;;
45728;SDS011;31439;53.512;10.206;2023-04-24T02:26:51;6.15;;;3.47;;
45728;SDS011;31439;53.512;10.206;2023-04-24T02:29:16;3.42;;;2.88;;
45728;SDS011;31439;53.512;10.206;2023-04-24T02:31:42;4.78;;;3.25;;
45728;SDS011;31439;53.512;10.206;2023-04-24T02:34:08;3.85;;;2.65;;
45728;SDS011;31439;53.512;10.206;2023-04-24T02:36:34;3.30;;;3.00;;
45728;SDS011;31439;53.512;10.206;2023-04-24T02:38:59;4.22;;;2.67;;
45728;SDS011;31439;53.512;10.206;2023-04-24T02:41:26;3.97;;;2.63;;
45728;SDS011;31439;53.512;10.206;2023-04-24T02:43:56;4.00;;;2.67;;
45728;SDS011;31439;53.512;10.206;2023-04-24T02:46:22;4.03;;;2.20;;
45728;SDS011;31439;53.512;10.206;2023-04-24T02:48:48;5.30;;;2.38;;
45728;SDS011;31439;53.512;10.206;2023-04-24T02:51:13;3.75;;;2.60;;
45728;SDS011;31439;53.512;10.206;2023-04-24T02:53:39;3.08;;;2.25;;
45728;SDS011;31439;53.512;10.206;2023-04-24T02:56:05;5.18;;;2.00;;
45728;SDS011;31439;53.512;10.206;2023-04-24T02:58:31;3.08;;;1.98;;
45728;SDS011;31439;53.512;10.206;2023-04-24T03:00:56;2.05;;;1.80;;
45728;SDS011;31439;53.512;10.206;2023-04-24T03:03:22;3.60;;;1.70;;
45728;SDS011;31439;53.512;10.206;2023-04-24T03:05:48;3.08;;;1.80;;
45728;SDS011;31439;53.512;10.206;2023-04-24T03:08:14;3.42;;;1.75;;
45728;SDS011;31439;53.512;10.206;2023-04-24T03:10:40;2.40;;;1.67;;
45728;SDS011;31439;53.512;10.206;2023-04-24T03:13:05;2.15;;;1.50;;
45728;SDS011;31439;53.512;10.206;2023-04-24T03:15:31;2.28;;;1.50;;
45728;SDS011;31439;53.512;10.206;2023-04-24T03:17:57;2.72;;;1.30;;
45728;SDS011;31439;53.512;10.206;2023-04-24T03:20:22;4.30;;;1.48;;
45728;SDS011;31439;53.512;10.206;2023-04-24T03:22:48;2.33;;;1.50;;
45728;SDS011;31439;53.512;10.206;2023-04-24T03:25:14;3.58;;;1.50;;
45728;SDS011;31439;53.512;10.206;2023-04-24T03:27:39;2.67;;;1.55;;
45728;SDS011;31439;53.512;10.206;2023-04-24T03:30:07;3.22;;;1.60;;
45728;SDS011;31439;53.512;10.206;2023-04-24T03:32:33;1.80;;;1.50;;
45728;SDS011;31439;53.512;10.206;2023-04-24T03:34:59;1.77;;;1.48;;
45728;SDS011;31439;53.512;10.206;2023-04-24T03:37:25;2.33;;;1.60;;
45728;SDS011;31439;53.512;10.206;2023-04-24T03:39:51;3.08;;;1.50;;
45728;SDS011;31439;53.512;10.206;2023-04-24T03:42:17;2.25;;;1.50;;
45728;SDS011;31439;53.512;10.206;2023-04-24T03:44:43;3.45;;;1.80;;
45728;SDS011;31439;53.512;10.206;2023-04-24T03:47:08;2.55;;;1.73;;
45728;SDS011;31439;53.512;10.206;2023-04-24T03:49:34;1.90;;;1.40;;
45728;SDS011;31439;53.512;10.206;2023-04-24T03:52:00;2.03;;;1.40;;
45728;SDS011;31439;53.512;10.206;2023-04-24T03:54:26;1.90;;;1.40;;
45728;SDS011;31439;53.512;10.206;2023-04-24T03:56:51;2.20;;;1.45;;
45728;SDS011;31439;53.512;10.206;2023-04-24T03:59:17;2.72;;;1.73;;
45728;SDS011;31439;53.512;10.206;2023-04-24T04:01:43;2.80;;;1.50;;
45728;SDS011;31439;53.512;10.206;2023-04-24T04:04:08;1.85;;;1.60;;
45728;SDS011;31439;53.512;10.206;2023-04-24T04:06:34;1.90;;;1.40;;
45728;SDS011;31439;53.512;10.206;2023-04-24T04:09:01;2.20;;;1.40;;
45728;SDS011;31439;53.512;10.206;2023-04-24T04:11:27;2.10;;;1.50;;
45728;SDS011;31439;53.512;10.206;2023-04-24T04:13:52;3.33;;;1.35;;
45728;SDS011;31439;53.512;10.206;2023-04-24T04:16:18;1.92;;;1.50;;
45728;SDS011;31439;53.512;10.206;2023-04-24T04:18:44;2.30;;;1.40;;
45728;SDS011;31439;53.512;10.206;2023-04-24T04:21:10;2.55;;;1.27;;
45728;SDS011;31439;53.512;10.206;2023-04-24T04:23:36;2.95;;;1.50;;
45728;SDS011;31439;53.512;10.206;2023-04-24T04:26:02;3.55;;;1.60;;
45728;SDS011;31439;53.512;10.206;2023-04-24T04:28:28;2.63;;;1.48;;
45728;SDS011;31439;53.512;10.206;2023-04-24T04:30:56;3.25;;;1.50;;
45728;SDS011;31439;53.512;10.206;2023-04-24T04:33:22;2.25;;;1.20;;
45728;SDS011;31439;53.512;10.206;2023-04-24T04:35:49;1.90;;;1.60;;
45728;SDS011;31439;53.512;10.206;2023-04-24T04:38:16;1.63;;;1.20;;
45728;SDS011;31439;53.512;10.206;2023-04-24T04:40:43;2.50;;;1.20;;
45728;SDS011;31439;53.512;10.206;2023-04-24T04:43:09;1.80;;;1.30;;
45728;SDS011;31439;53.512;10.206;2023-04-24T04:45:36;1.98;;;1.15;;
45728;SDS011;31439;53.512;10.206;2023-04-24T04:48:03;1.80;;;1.30;;
45728;SDS011;31439;53.512;10.206;2023-04-24T04:50:29;1.77;;;1.30;;
45728;SDS011;31439;53.512;10.206;2023-04-24T04:52:55;2.63;;;1.30;;
45728;SDS011;31439;53.512;10.206;2023-04-24T04:55:21;1.70;;;1.30;;
45728;SDS011;31439;53.512;10.206;2023-04-24T04:57:47;1.88;;;1.20;;
45728;SDS011;31439;53.512;10.206;2023-04-24T05:00:12;2.30;;;1.45;;
45728;SDS011;31439;53.512;10.206;2023-04-24T05:02:39;1.80;;;1.30;;
45728;SDS011;31439;53.512;10.206;2023-04-24T05:05:05;5.90;;;1.20;;
45728;SDS011;31439;53.512;10.206;2023-04-24T05:07:32;1.88;;;1.17;;
45728;SDS011;31439;53.512;10.206;2023-04-24T05:09:58;1.75;;;1.30;;
45728;SDS011;31439;53.512;10.206;2023-04-24T05:12:23;3.13;;;1.40;;
45728;SDS011;31439;53.512;10.206;2023-04-24T05:14:49;2.40;;;1.30;;
45728;SDS011;31439;53.512;10.206;2023-04-24T05:17:15;2.33;;;1.42;;
45728;SDS011;31439;53.512;10.206;2023-04-24T05:19:41;3.42;;;1.48;;
45728;SDS011;31439;53.512;10.206;2023-04-24T05:22:07;3.08;;;1.40;;
45728;SDS011;31439;53.512;10.206;2023-04-24T05:24:33;2.80;;;1.70;;
45728;SDS011;31439;53.512;10.206;2023-04-24T05:26:59;3.92;;;1.50;;
45728;SDS011;31439;53.512;10.206;2023-04-24T05:29:25;2.20;;;1.30;;
45728;SDS011;31439;53.512;10.206;2023-04-24T05:31:51;2.20;;;1.42;;
45728;SDS011;31439;53.512;10.206;2023-04-24T05:34:17;2.13;;;1.50;;
45728;SDS011;31439;53.512;10.206;2023-04-24T05:36:43;2.17;;;1.55;;
45728;SDS011;31439;53.512;10.206;2023-04-24T05:39:09;2.00;;;1.40;;
45728;SDS011;31439;53.512;10.206;2023-04-24T05:41:34;2.72;;;1.50;;
45728;SDS011;31439;53.512;10.206;2023-04-24T05:44:00;3.33;;;1.73;;
45728;SDS011;31439;53.512;10.206;2023-04-24T05:46:25;4.00;;;1.50;;
45728;SDS011;31439;53.512;10.206;2023-04-24T05:48:51;3.15;;;1.70;;
45728;SDS011;31439;53.512;10.206;2023-04-24T05:51:17;1.88;;;1.30;;
45728;SDS011;31439;53.512;10.206;2023-04-24T05:53:42;1.80;;;1.17;;
45728;SDS011;31439;53.512;10.206;2023-04-24T05:56:08;1.65;;;1.25;;
45728;SDS011;31439;53.512;10.206;2023-04-24T05:58:34;1.75;;;1.30;;
45728;SDS011;31439;53.512;10.206;2023-04-24T06:01:00;1.27;;;1.08;;
45728;SDS011;31439;53.512;10.206;2023-04-24T06:03:26;1.88;;;1.30;;
45728;SDS011;31439;53.512;10.206;2023-04-24T06:05:52;2.00;;;1.23;;
45728;SDS011;31439;53.512;10.206;2023-04-24T06:08:18;1.63;;;1.17;;
45728;SDS011;31439;53.512;10.206;2023-04-24T06:10:44;1.80;;;1.20;;
45728;SDS011;31439;53.512;10.206;2023-04-24T06:13:10;1.52;;;1.20;;
45728;SDS011;31439;53.512;10.206;2023-04-24T06:15:36;2.28;;;1.30;;
45728;SDS011;31439;53.512;10.206;2023-04-24T06:18:02;2.80;;;1.40;;
45728;SDS011;31439;53.512;10.206;2023-04-24T06:20:28;2.20;;;1.27;;
45728;SDS011;31439;53.512;10.206;2023-04-24T06:22:54;3.80;;;1.50;;
45728;SDS011;31439;53.512;10.206;2023-04-24T06:25:19;2.05;;;1.23;;
45728;SDS011;31439;53.512;10.206;2023-04-24T06:27:45;2.60;;;1.50;;
45728;SDS011;31439;53.512;10.206;2023-04-24T06:30:11;1.50;;;1.17;;
45728;SDS011;31439;53.512;10.206;2023-04-24T06:32:37;2.53;;;1.35;;
45728;SDS011;31439;53.512;10.206;2023-04-24T06:35:03;6.25;;;1.60;;
45728;SDS011;31439;53.512;10.206;2023-04-24T06:37:29;3.25;;;1.30;;
45728;SDS011;31439;53.512;10.206;2023-04-24T06:39:55;2.28;;;1.45;;
45728;SDS011;31439;53.512;10.206;2023-04-24T06:42:21;2.90;;;1.65;;
45728;SDS011;31439;53.512;10.206;2023-04-24T06:44:47;2.08;;;1.40;;
45728;SDS011;31439;53.512;10.206;2023-04-24T06:47:12;2.97;;;1.60;;
45728;SDS011;31439;53.512;10.206;2023-04-24T06:49:38;1.73;;;1.50;;
45728;SDS011;31439;53.512;10.206;2023-04-24T06:52:04;2.40;;;1.70;;
45728;SDS011;31439;53.512;10.206;2023-04-24T06:54:30;3.22;;;1.83;;
45728;SDS011;31439;53.512;10.206;2023-04-24T06:56:57;3.22;;;1.70;;
45728;SDS011;31439;53.512;10.206;2023-04-24T06:59:23;3.85;;;1.40;;
45728;SDS011;31439;53.512;10.206;2023-04-24T07:01:49;2.17;;;1.60;;
45728;SDS011;31439;53.512;10.206;2023-04-24T07:04:16;3.60;;;1.80;;
45728;SDS011;31439;53.512;10.206;2023-04-24T07:06:42;2.42;;;1.70;;
45728;SDS011;31439;53.512;10.206;2023-04-24T07:09:08;8.60;;;1.90;;
45728;SDS011;31439;53.512;10.206;2023-04-24T07:11:34;2.20;;;1.67;;
45728;SDS011;31439;53.512;10.206;2023-04-24T07:14:01;2.25;;;1.60;;
45728;SDS011;31439;53.512;10.206;2023-04-24T07:16:27;2.97;;;1.80;;
45728;SDS011;31439;53.512;10.206;2023-04-24T07:18:53;3.83;;;1.95;;
45728;SDS011;31439;53.512;10.206;2023-04-24T07:21:18;4.28;;;1.90;;
45728;SDS011;31439;53.512;10.206;2023-04-24T07:23:44;2.72;;;1.80;;
45728;SDS011;31439;53.512;10.206;2023-04-24T07:26:10;2.90;;;1.60;;
45728;SDS011;31439;53.512;10.206;2023-04-24T07:28:35;3.50;;;2.40;;
45728;SDS011;31439;53.512;10.206;2023-04-24T07:31:01;2.58;;;1.88;;
45728;SDS011;31439;53.512;10.206;2023-04-24T07:33:27;6.13;;;2.42;;
45728;SDS011;31439;53.512;10.206;2023-04-24T07:35:52;3.33;;;2.42;;
45728;SDS011;31439;53.512;10.206;2023-04-24T07:38:18;3.10;;;2.08;;
45728;SDS011;31439;53.512;10.206;2023-04-24T07:40:47;3.40;;;2.28;;
45728;SDS011;31439;53.512;10.206;2023-04-24T07:43:13;4.05;;;2.15;;
45728;SDS011;31439;53.512;10.206;2023-04-24T07:45:38;4.70;;;2.20;;
45728;SDS011;31439;53.512;10.206;2023-04-24T07:48:04;3.85;;;2.13;;
45728;SDS011;31439;53.512;10.206;2023-04-24T07:50:30;2.63;;;2.08;;
45728;SDS011;31439;53.512;10.206;2023-04-24T07:52:56;4.45;;;2.28;;
45728;SDS011;31439;53.512;10.206;2023-04-24T07:55:22;3.30;;;2.15;;
45728;SDS011;31439;53.512;10.206;2023-04-24T07:57:48;2.47;;;2.15;;
45728;SDS011;31439;53.512;10.206;2023-04-24T08:00:13;3.72;;;2.10;;
45728;SDS011;31439;53.512;10.206;2023-04-24T08:02:39;3.00;;;1.92;;
45728;SDS011;31439;53.512;10.206;2023-04-24T08:05:06;3.17;;;2.30;;
45728;SDS011;31439;53.512;10.206;2023-04-24T08:07:32;2.75;;;2.20;;
45728;SDS011;31439;53.512;10.206;2023-04-24T08:09:57;4.40;;;2.42;;
45728;SDS011;31439;53.512;10.206;2023-04-24T08:12:24;3.67;;;2.33;;
45728;SDS011;31439;53.512;10.206;2023-04-24T08:14:50;3.60;;;2.30;;
45728;SDS011;31439;53.512;10.206;2023-04-24T08:17:16;3.60;;;2.40;;
45728;SDS011;31439;53.512;10.206;2023-04-24T08:19:42;3.80;;;2.58;;
45728;SDS011;31439;53.512;10.206;2023-04-24T08:22:12;3.15;;;2.40;;
45728;SDS011;31439;53.512;10.206;2023-04-24T08:24:38;3.80;;;2.58;;
45728;SDS011;31439;53.512;10.206;2023-04-24T08:27:05;2.97;;;2.30;;
45728;SDS011;31439;53.512;10.206;2023-04-24T08:29:31;4.03;;;3.08;;
45728;SDS011;31439;53.512;10.206;2023-04-24T08:31:57;3.60;;;3.00;;
45728;SDS011;31439;53.512;10.206;2023-04-24T08:34:22;3.88;;;3.20;;
45728;SDS011;31439;53.512;10.206;2023-04-24T08:36:48;5.43;;;3.50;;
45728;SDS011;31439;53.512;10.206;2023-04-24T08:39:14;5.05;;;3.70;;
45728;SDS011;31439;53.512;10.206;2023-04-24T08:41:41;4.93;;;3.60;;
45728;SDS011;31439;53.512;10.206;2023-04-24T08:44:11;5.88;;;3.60;;
45728;SDS011;31439;53.512;10.206;2023-04-24T08:46:39;5.70;;;3.70;;
45728;SDS011;31439;53.512;10.206;2023-04-24T08:49:05;4.63;;;3.63;;
45728;SDS011;31439;53.512;10.206;2023-04-24T08:51:31;5.60;;;3.80;;
45728;SDS011;31439;53.512;10.206;2023-04-24T08:53:57;4.57;;;4.05;;
45728;SDS011;31439;53.512;10.206;2023-04-24T08:56:23;5.25;;;4.22;;
45728;SDS011;31439;53.512;10.206;2023-04-24T08:58:53;6.05;;;4.10;;
45728;SDS011;31439;53.512;10.206;2023-04-24T09:01:19;8.02;;;4.20;;
45728;SDS011;31439;53.512;10.206;2023-04-24T09:03:46;4.90;;;4.40;;
45728;SDS011;31439;53.512;10.206;2023-04-24T09:06:14;14.50;;;4.70;;
45728;SDS011;31439;53.512;10.206;2023-04-24T09:08:42;4.95;;;4.40;;
45728;SDS011;31439;53.512;10.206;2023-04-24T09:11:10;5.88;;;4.63;;
45728;SDS011;31439;53.512;10.206;2023-04-24T09:13:37;5.10;;;4.40;;
45728;SDS011;31439;53.512;10.206;2023-04-24T09:16:03;5.40;;;4.68;;
45728;SDS011;31439;53.512;10.206;2023-04-24T09:18:28;6.43;;;4.65;;
45728;SDS011;31439;53.512;10.206;2023-04-24T09:20:58;5.85;;;4.57;;
45728;SDS011;31439;53.512;10.206;2023-04-24T09:23:31;7.43;;;4.55;;
45728;SDS011;31439;53.512;10.206;2023-04-24T09:25:58;6.10;;;4.35;;
45728;SDS011;31439;53.512;10.206;2023-04-24T09:28:26;5.57;;;3.95;;
45728;SDS011;31439;53.512;10.206;2023-04-24T09:33:29;5.47;;;3.90;;
45728;SDS011;31439;53.512;10.206;2023-04-24T09:35:54;4.50;;;3.60;;
45728;SDS011;31439;53.512;10.206;2023-04-24T09:38:30;5.10;;;4.00;;
45728;SDS011;31439;53.512;10.206;2023-04-24T09:41:00;5.47;;;4.38;;
45728;SDS011;31439;53.512;10.206;2023-04-24T09:46:08;5.80;;;4.10;;
45728;SDS011;31439;53.512;10.206;2023-04-24T09:48:35;5.30;;;4.28;;
45728;SDS011;31439;53.512;10.206;2023-04-24T09:51:03;5.93;;;4.70;;
45728;SDS011;31439;53.512;10.206;2023-04-24T09:53:31;5.75;;;4.10;;
45728;SDS011;31439;53.512;10.206;2023-04-24T09:56:15;6.05;;;4.20;;
45728;SDS011;31439;53.512;10.206;2023-04-24T09:58:41;5.72;;;4.00;;
45728;SDS011;31439;53.512;10.206;2023-04-24T10:01:07;4.50;;;3.75;;
45728;SDS011;31439;53.512;10.206;2023-04-24T10:03:33;6.10;;;4.30;;
45728;SDS011;31439;53.512;10.206;2023-04-24T10:06:01;5.95;;;4.30;;
45728;SDS011;31439;53.512;10.206;2023-04-24T10:08:33;4.90;;;4.40;;
45728;SDS011;31439;53.512;10.206;2023-04-24T10:10:59;5.70;;;3.88;;
45728;SDS011;31439;53.512;10.206;2023-04-24T10:13:25;6.05;;;4.45;;
45728;SDS011;31439;53.512;10.206;2023-04-24T10:15:52;7.75;;;4.57;;
45728;SDS011;31439;53.512;10.206;2023-04-24T10:18:19;7.78;;;4.25;;
45728;SDS011;31439;53.512;10.206;2023-04-24T10:20:46;5.05;;;3.78;;
45728;SDS011;31439;53.512;10.206;2023-04-24T10:23:12;6.45;;;5.18;;
45728;SDS011;31439;53.512;10.206;2023-04-24T10:25:38;6.38;;;4.93;;
45728;SDS011;31439;53.512;10.206;2023-04-24T10:28:04;6.82;;;5.53;;
45728;SDS011;31439;53.512;10.206;2023-04-24T10:30:35;7.78;;;5.47;;
45728;SDS011;31439;53.512;10.206;2023-04-24T10:33:04;8.00;;;5.90;;
45728;SDS011;31439;53.512;10.206;2023-04-24T10:35:34;9.13;;;5.82;;
45728;SDS011;31439;53.512;10.206;2023-04-24T10:38:13;6.90;;;6.15;;
45728;SDS011;31439;53.512;10.206;2023-04-24T10:40:41;11.35;;;6.35;;
45728;SDS011;31439;53.512;10.206;2023-04-24T10:43:08;8.90;;;5.82;;
45728;SDS011;31439;53.512;10.206;2023-04-24T10:45:37;7.95;;;6.38;;
45728;SDS011;31439;53.512;10.206;2023-04-24T10:48:04;7.82;;;6.10;;
45728;SDS011;31439;53.512;10.206;2023-04-24T10:53:13;19.17;;;7.07;;
45728;SDS011;31439;53.512;10.206;2023-04-24T10:58:09;10.88;;;6.25;;
45728;SDS011;31439;53.512;10.206;2023-04-24T11:00:39;9.00;;;6.72;;
45728;SDS011;31439;53.512;10.206;2023-04-24T11:03:06;8.60;;;6.28;;
45728;SDS011;31439;53.512;10.206;2023-04-24T11:05:51;9.70;;;7.80;;
45728;SDS011;31439;53.512;10.206;2023-04-24T11:08:25;10.48;;;7.32;;
45728;SDS011;31439;53.512;10.206;2023-04-24T11:10:57;10.25;;;7.57;;
45728;SDS011;31439;53.512;10.206;2023-04-24T11:13:23;8.70;;;7.03;;
45728;SDS011;31439;53.512;10.206;2023-04-24T11:18:38;9.50;;;7.25;;
45728;SDS011;31439;53.512;10.206;2023-04-24T11:21:11;9.18;;;6.93;;
45728;SDS011;31439;53.512;10.206;2023-04-24T11:23:38;10.13;;;6.38;;
45728;SDS011;31439;53.512;10.206;2023-04-24T11:26:37;8.98;;;6.75;;
45728;SDS011;31439;53.512;10.206;2023-04-24T11:29:07;10.75;;;7.10;;
45728;SDS011;31439;53.512;10.206;2023-04-24T11:31:34;8.25;;;6.00;;
45728;SDS011;31439;53.512;10.206;2023-04-24T11:34:07;9.40;;;6.80;;
45728;SDS011;31439;53.512;10.206;2023-04-24T11:39:05;9.93;;;6.63;;
45728;SDS011;31439;53.512;10.206;2023-04-24T11:41:32;8.85;;;5.95;;
45728;SDS011;31439;53.512;10.206;2023-04-24T11:43:58;7.38;;;6.00;;
45728;SDS011;31439;53.512;10.206;2023-04-24T11:46:27;9.40;;;6.90;;
45728;SDS011;31439;53.512;10.206;2023-04-24T11:48:54;8.80;;;6.50;;
45728;SDS011;31439;53.512;10.206;2023-04-24T11:51:19;7.50;;;6.47;;
45728;SDS011;31439;53.512;10.206;2023-04-24T11:53:45;8.40;;;5.97;;
45728;SDS011;31439;53.512;10.206;2023-04-24T11:56:10;8.20;;;5.85;;
45728;SDS011;31439;53.512;10.206;2023-04-24T11:58:37;7.88;;;5.70;;
45728;SDS011;31439;53.512;10.206;2023-04-24T12:01:04;7.72;;;5.40;;
45728;SDS011;31439;53.512;10.206;2023-04-24T12:03:30;7.15;;;5.80;;
45728;SDS011;31439;53.512;10.206;2023-04-24T12:06:09;8.15;;;5.78;;
45728;SDS011;31439;53.512;10.206;2023-04-24T12:08:36;7.13;;;5.68;;
45728;SDS011;31439;53.512;10.206;2023-04-24T12:11:02;6.97;;;5.65;;
45728;SDS011;31439;53.512;10.206;2023-04-24T12:13:29;6.28;;;4.68;;
45728;SDS011;31439;53.512;10.206;2023-04-24T12:15:58;6.20;;;4.70;;
45728;SDS011;31439;53.512;10.206;2023-04-24T12:18:25;5.82;;;4.53;;
45728;SDS011;31439;53.512;10.206;2023-04-24T12:20:51;5.85;;;4.63;;
45728;SDS011;31439;53.512;10.206;2023-04-24T12:23:16;5.00;;;4.07;;
45728;SDS011;31439;53.512;10.206;2023-04-24T12:26:00;6.55;;;4.18;;
45728;SDS011;31439;53.512;10.206;2023-04-24T12:28:34;5.72;;;4.30;;
45728;SDS011;31439;53.512;10.206;2023-04-24T12:31:04;4.85;;;3.90;;
45728;SDS011;31439;53.512;10.206;2023-04-24T12:33:34;5.38;;;3.80;;
45728;SDS011;31439;53.512;10.206;2023-04-24T12:36:00;6.35;;;4.30;;
45728;SDS011;31439;53.512;10.206;2023-04-24T12:38:27;4.90;;;3.90;;
45728;SDS011;31439;53.512;10.206;2023-04-24T12:41:08;5.55;;;4.32;;
45728;SDS011;31439;53.512;10.206;2023-04-24T12:43:35;6.05;;;3.90;;
45728;SDS011;31439;53.512;10.206;2023-04-24T12:46:01;6.07;;;4.10;;
45728;SDS011;31439;53.512;10.206;2023-04-24T12:48:28;5.20;;;4.18;;
45728;SDS011;31439;53.512;10.206;2023-04-24T12:50:56;8.05;;;4.47;;
45728;SDS011;31439;53.512;10.206;2023-04-24T12:53:25;8.82;;;4.32;;
45728;SDS011;31439;53.512;10.206;2023-04-24T12:55:51;7.78;;;4.50;;
45728;SDS011;31439;53.512;10.206;2023-04-24T12:58:20;6.78;;;3.95;;
45728;SDS011;31439;53.512;10.206;2023-04-24T13:00:46;5.07;;;3.30;;
45728;SDS011;31439;53.512;10.206;2023-04-24T13:03:12;4.18;;;3.22;;
45728;SDS011;31439;53.512;10.206;2023-04-24T13:05:38;5.13;;;3.38;;
45728;SDS011;31439;53.512;10.206;2023-04-24T13:08:05;5.20;;;2.97;;
45728;SDS011;31439;53.512;10.206;2023-04-24T13:10:30;3.65;;;2.78;;
45728;SDS011;31439;53.512;10.206;2023-04-24T13:12:56;5.35;;;3.40;;
45728;SDS011;31439;53.512;10.206;2023-04-24T13:15:22;5.18;;;3.17;;
45728;SDS011;31439;53.512;10.206;2023-04-24T13:17:48;4.25;;;3.08;;
45728;SDS011;31439;53.512;10.206;2023-04-24T13:20:14;5.13;;;3.00;;
45728;SDS011;31439;53.512;10.206;2023-04-24T13:22:39;4.22;;;3.33;;
45728;SDS011;31439;53.512;10.206;2023-04-24T13:25:05;4.45;;;2.70;;
45728;SDS011;31439;53.512;10.206;2023-04-24T13:27:32;4.07;;;3.00;;
45728;SDS011;31439;53.512;10.206;2023-04-24T13:29:58;4.78;;;3.33;;
45728;SDS011;31439;53.512;10.206;2023-04-24T13:32:23;7.78;;;4.20;;
45728;SDS011;31439;53.512;10.206;2023-04-24T13:34:50;7.57;;;4.13;;
45728;SDS011;31439;53.512;10.206;2023-04-24T13:37:15;6.82;;;4.50;;
45728;SDS011;31439;53.512;10.206;2023-04-24T13:39:41;4.75;;;3.88;;
45728;SDS011;31439;53.512;10.206;2023-04-24T13:42:07;4.50;;;3.97;;
45728;SDS011;31439;53.512;10.206;2023-04-24T13:44:32;5.70;;;3.88;;
45728;SDS011;31439;53.512;10.206;2023-04-24T13:46:58;5.72;;;3.90;;
45728;SDS011;31439;53.512;10.206;2023-04-24T13:49:32;6.60;;;5.40;;
45728;SDS011;31439;53.512;10.206;2023-04-24T13:51:58;5.32;;;4.03;;
45728;SDS011;31439;53.512;10.206;2023-04-24T13:54:23;5.28;;;4.18;;
45728;SDS011;31439;53.512;10.206;2023-04-24T13:56:50;4.18;;;3.70;;
45728;SDS011;31439;53.512;10.206;2023-04-24T13:59:17;3.97;;;3.55;;
45728;SDS011;31439;53.512;10.206;2023-04-24T14:01:44;4.03;;;3.35;;
45728;SDS011;31439;53.512;10.206;2023-04-24T14:04:10;3.80;;;3.20;;
45728;SDS011;31439;53.512;10.206;2023-04-24T14:06:36;4.30;;;3.40;;
45728;SDS011;31439;53.512;10.206;2023-04-24T14:09:01;3.40;;;3.10;;
45728;SDS011;31439;53.512;10.206;2023-04-24T14:11:27;3.80;;;2.92;;
45728;SDS011;31439;53.512;10.206;2023-04-24T14:13:54;3.75;;;3.17;;
45728;SDS011;31439;53.512;10.206;2023-04-24T14:16:23;3.85;;;3.00;;
45728;SDS011;31439;53.512;10.206;2023-04-24T14:18:48;4.00;;;3.03;;
45728;SDS011;31439;53.512;10.206;2023-04-24T14:21:15;3.40;;;3.10;;
45728;SDS011;31439;53.512;10.206;2023-04-24T14:23:40;3.83;;;2.97;;
45728;SDS011;31439;53.512;10.206;2023-04-24T14:26:06;4.13;;;2.97;;
45728;SDS011;31439;53.512;10.206;2023-04-24T14:28:32;3.67;;;2.95;;
45728;SDS011;31439;53.512;10.206;2023-04-24T14:30:57;5.22;;;3.30;;
45728;SDS011;31439;53.512;10.206;2023-04-24T14:33:23;4.05;;;3.50;;
45728;SDS011;31439;53.512;10.206;2023-04-24T14:35:49;3.50;;;3.05;;
45728;SDS011;31439;53.512;10.206;2023-04-24T14:38:14;4.15;;;3.20;;
45728;SDS011;31439;53.512;10.206;2023-04-24T14:40:40;3.35;;;2.70;;
45728;SDS011;31439;53.512;10.206;2023-04-24T14:43:06;3.78;;;3.10;;
45728;SDS011;31439;53.512;10.206;2023-04-24T14:45:32;4.82;;;3.13;;